sensor_id;sensor_type;location;lat;lon;timestamp;P1;durP1;ratioP1;P2;durP2;ratioP2
7487;SDS011;3785;52.260;4.728;2024-02-21T00:00:23;8.35;;;1.30;;
7487;SDS011;3785;52.260;4.728;2024-02-21T00:03:44;5.07;;;1.20;;
7487;SDS011;3785;52.260;4.728;2024-02-21T00:07:05;8.90;;;1.40;;
7487;SDS011;3785;52.260;4.728;2024-02-21T00:10:25;5.93;;;1.25;;
7487;SDS011;3785;52.260;4.728;2024-02-21T00:13:46;7.55;;;1.60;;
7487;SDS011;3785;52.260;4.728;2024-02-21T00:17:06;8.18;;;1.60;;
7487;SDS011;3785;52.260;4.728;2024-02-21T00:20:28;8.50;;;2.20;;
7487;SDS011;3785;52.260;4.728;2024-02-21T00:23:49;7.55;;;1.80;;
7487;SDS011;3785;52.260;4.728;2024-02-21T00:27:10;4.85;;;1.27;;
7487;SDS011;3785;52.260;4.728;2024-02-21T00:30:31;5.13;;;1.45;;
7487;SDS011;3785;52.260;4.728;2024-02-21T00:33:52;6.13;;;1.35;;
7487;SDS011;3785;52.260;4.728;2024-02-21T00:37:12;8.43;;;1.88;;
7487;SDS011;3785;52.260;4.728;2024-02-21T00:40:33;6.30;;;1.50;;
7487;SDS011;3785;52.260;4.728;2024-02-21T00:43:54;8.45;;;1.67;;
7487;SDS011;3785;52.260;4.728;2024-02-21T00:47:15;3.47;;;1.17;;
7487;SDS011;3785;52.260;4.728;2024-02-21T00:50:36;6.00;;;1.50;;
7487;SDS011;3785;52.260;4.728;2024-02-21T00:53:57;5.78;;;1.48;;
7487;SDS011;3785;52.260;4.728;2024-02-21T00:57:18;9.30;;;1.95;;
7487;SDS011;3785;52.260;4.728;2024-02-21T01:00:38;8.77;;;1.83;;
7487;SDS011;3785;52.260;4.728;2024-02-21T01:03:59;8.65;;;1.75;;
7487;SDS011;3785;52.260;4.728;2024-02-21T01:07:20;4.53;;;1.40;;
7487;SDS011;3785;52.260;4.728;2024-02-21T01:10:40;7.30;;;1.33;;
7487;SDS011;3785;52.260;4.728;2024-02-21T01:14:01;6.05;;;1.80;;
7487;SDS011;3785;52.260;4.728;2024-02-21T01:17:22;6.60;;;1.67;;
7487;SDS011;3785;52.260;4.728;2024-02-21T01:20:43;6.45;;;1.70;;
7487;SDS011;3785;52.260;4.728;2024-02-21T01:24:03;7.38;;;1.73;;
7487;SDS011;3785;52.260;4.728;2024-02-21T01:27:24;7.53;;;1.58;;
7487;SDS011;3785;52.260;4.728;2024-02-21T01:30:44;4.82;;;1.15;;
7487;SDS011;3785;52.260;4.728;2024-02-21T01:34:05;5.40;;;1.38;;
7487;SDS011;3785;52.260;4.728;2024-02-21T01:37:26;7.32;;;1.55;;
7487;SDS011;3785;52.260;4.728;2024-02-21T01:40:46;6.45;;;1.52;;
7487;SDS011;3785;52.260;4.728;2024-02-21T01:44:07;8.98;;;1.55;;
7487;SDS011;3785;52.260;4.728;2024-02-21T01:47:27;4.07;;;1.45;;
7487;SDS011;3785;52.260;4.728;2024-02-21T01:50:49;6.97;;;1.40;;
7487;SDS011;3785;52.260;4.728;2024-02-21T01:54:10;7.03;;;1.40;;
7487;SDS011;3785;52.260;4.728;2024-02-21T01:57:32;5.43;;;1.52;;
7487;SDS011;3785;52.260;4.728;2024-02-21T02:00:53;7.88;;;1.48;;
7487;SDS011;3785;52.260;4.728;2024-02-21T02:04:16;6.20;;;1.40;;
7487;SDS011;3785;52.260;4.728;2024-02-21T02:07:37;9.40;;;1.65;;
7487;SDS011;3785;52.260;4.728;2024-02-21T02:10:57;5.53;;;1.33;;
7487;SDS011;3785;52.260;4.728;2024-02-21T02:14:18;4.22;;;1.38;;
7487;SDS011;3785;52.260;4.728;2024-02-21T02:17:39;5.22;;;1.48;;
7487;SDS011;3785;52.260;4.728;2024-02-21T02:20:59;5.03;;;1.67;;
7487;SDS011;3785;52.260;4.728;2024-02-21T02:24:20;8.27;;;1.27;;
7487;SDS011;3785;52.260;4.728;2024-02-21T02:27:42;7.03;;;1.70;;
7487;SDS011;3785;52.260;4.728;2024-02-21T02:31:04;6.10;;;1.42;;
7487;SDS011;3785;52.260;4.728;2024-02-21T02:34:25;6.30;;;1.40;;
7487;SDS011;3785;52.260;4.728;2024-02-21T02:37:49;5.15;;;1.67;;
7487;SDS011;3785;52.260;4.728;2024-02-21T02:41:10;5.40;;;1.27;;
7487;SDS011;3785;52.260;4.728;2024-02-21T02:44:31;5.82;;;1.50;;
7487;SDS011;3785;52.260;4.728;2024-02-21T02:47:52;7.30;;;1.80;;
7487;SDS011;3785;52.260;4.728;2024-02-21T02:51:16;5.85;;;1.40;;
7487;SDS011;3785;52.260;4.728;2024-02-21T02:54:38;8.27;;;1.45;;
7487;SDS011;3785;52.260;4.728;2024-02-21T02:57:58;8.88;;;1.30;;
7487;SDS011;3785;52.260;4.728;2024-02-21T03:01:19;5.43;;;1.48;;
7487;SDS011;3785;52.260;4.728;2024-02-21T03:04:40;8.27;;;2.40;;
7487;SDS011;3785;52.260;4.728;2024-02-21T03:08:00;8.23;;;1.88;;
7487;SDS011;3785;52.260;4.728;2024-02-21T03:11:21;8.43;;;1.52;;
7487;SDS011;3785;52.260;4.728;2024-02-21T03:14:48;8.25;;;2.08;;
7487;SDS011;3785;52.260;4.728;2024-02-21T03:18:09;7.47;;;1.55;;
7487;SDS011;3785;52.260;4.728;2024-02-21T03:21:29;9.00;;;1.52;;
7487;SDS011;3785;52.260;4.728;2024-02-21T03:24:50;10.63;;;1.52;;
7487;SDS011;3785;52.260;4.728;2024-02-21T03:28:11;7.20;;;1.23;;
7487;SDS011;3785;52.260;4.728;2024-02-21T03:31:31;5.35;;;1.63;;
7487;SDS011;3785;52.260;4.728;2024-02-21T03:34:52;4.53;;;1.45;;
7487;SDS011;3785;52.260;4.728;2024-02-21T03:38:13;5.10;;;1.48;;
7487;SDS011;3785;52.260;4.728;2024-02-21T03:41:33;6.63;;;1.58;;
7487;SDS011;3785;52.260;4.728;2024-02-21T03:44:54;6.72;;;1.42;;
7487;SDS011;3785;52.260;4.728;2024-02-21T03:48:14;8.07;;;2.00;;
7487;SDS011;3785;52.260;4.728;2024-02-21T03:51:35;6.90;;;1.70;;
7487;SDS011;3785;52.260;4.728;2024-02-21T03:54:56;8.00;;;1.70;;
7487;SDS011;3785;52.260;4.728;2024-02-21T03:58:17;3.88;;;1.20;;
7487;SDS011;3785;52.260;4.728;2024-02-21T04:01:37;6.97;;;1.42;;
7487;SDS011;3785;52.260;4.728;2024-02-21T04:04:58;8.45;;;1.98;;
7487;SDS011;3785;52.260;4.728;2024-02-21T04:08:19;6.20;;;1.70;;
7487;SDS011;3785;52.260;4.728;2024-02-21T04:11:39;8.13;;;1.88;;
7487;SDS011;3785;52.260;4.728;2024-02-21T04:15:00;7.18;;;1.90;;
7487;SDS011;3785;52.260;4.728;2024-02-21T04:18:21;9.27;;;1.63;;
7487;SDS011;3785;52.260;4.728;2024-02-21T04:21:41;3.00;;;1.65;;
7487;SDS011;3785;52.260;4.728;2024-02-21T04:25:02;4.57;;;1.52;;
7487;SDS011;3785;52.260;4.728;2024-02-21T04:28:23;3.78;;;1.55;;
7487;SDS011;3785;52.260;4.728;2024-02-21T04:31:44;7.85;;;2.08;;
7487;SDS011;3785;52.260;4.728;2024-02-21T04:35:05;5.60;;;1.70;;
7487;SDS011;3785;52.260;4.728;2024-02-21T04:38:27;8.63;;;2.20;;
7487;SDS011;3785;52.260;4.728;2024-02-21T04:41:48;7.05;;;2.58;;
7487;SDS011;3785;52.260;4.728;2024-02-21T04:45:09;5.63;;;2.40;;
7487;SDS011;3785;52.260;4.728;2024-02-21T04:48:30;10.48;;;2.47;;
7487;SDS011;3785;52.260;4.728;2024-02-21T04:51:50;6.72;;;2.28;;
7487;SDS011;3785;52.260;4.728;2024-02-21T04:55:12;5.82;;;2.30;;
7487;SDS011;3785;52.260;4.728;2024-02-21T04:58:32;4.90;;;2.25;;
7487;SDS011;3785;52.260;4.728;2024-02-21T05:01:53;8.25;;;2.40;;
7487;SDS011;3785;52.260;4.728;2024-02-21T05:05:14;4.47;;;2.25;;
7487;SDS011;3785;52.260;4.728;2024-02-21T05:08:36;8.13;;;2.40;;
7487;SDS011;3785;52.260;4.728;2024-02-21T05:11:57;5.50;;;2.40;;
7487;SDS011;3785;52.260;4.728;2024-02-21T05:15:20;5.75;;;2.17;;
7487;SDS011;3785;52.260;4.728;2024-02-21T05:18:41;6.97;;;2.90;;
7487;SDS011;3785;52.260;4.728;2024-02-21T05:22:02;7.32;;;2.35;;
7487;SDS011;3785;52.260;4.728;2024-02-21T05:25:23;4.75;;;2.28;;
7487;SDS011;3785;52.260;4.728;2024-02-21T05:28:44;4.97;;;2.63;;
7487;SDS011;3785;52.260;4.728;2024-02-21T05:32:04;4.93;;;2.58;;
7487;SDS011;3785;52.260;4.728;2024-02-21T05:35:26;6.47;;;2.78;;
7487;SDS011;3785;52.260;4.728;2024-02-21T05:38:47;4.80;;;3.03;;
7487;SDS011;3785;52.260;4.728;2024-02-21T05:42:08;6.32;;;3.28;;
7487;SDS011;3785;52.260;4.728;2024-02-21T05:45:28;6.00;;;2.95;;
7487;SDS011;3785;52.260;4.728;2024-02-21T05:48:49;4.38;;;3.17;;
7487;SDS011;3785;52.260;4.728;2024-02-21T05:52:10;6.47;;;3.75;;
7487;SDS011;3785;52.260;4.728;2024-02-21T05:55:31;7.32;;;3.85;;
7487;SDS011;3785;52.260;4.728;2024-02-21T05:58:52;8.48;;;3.55;;
7487;SDS011;3785;52.260;4.728;2024-02-21T06:02:12;5.70;;;3.78;;
7487;SDS011;3785;52.260;4.728;2024-02-21T06:05:37;6.00;;;3.53;;
7487;SDS011;3785;52.260;4.728;2024-02-21T06:08:58;8.90;;;4.53;;
7487;SDS011;3785;52.260;4.728;2024-02-21T06:12:20;9.32;;;5.07;;
7487;SDS011;3785;52.260;4.728;2024-02-21T06:15:40;8.45;;;5.10;;
7487;SDS011;3785;52.260;4.728;2024-02-21T06:19:01;6.82;;;4.30;;
7487;SDS011;3785;52.260;4.728;2024-02-21T06:22:23;9.77;;;4.97;;
7487;SDS011;3785;52.260;4.728;2024-02-21T06:25:43;6.32;;;4.25;;
7487;SDS011;3785;52.260;4.728;2024-02-21T06:29:04;6.95;;;3.88;;
7487;SDS011;3785;52.260;4.728;2024-02-21T06:32:25;5.45;;;3.40;;
7487;SDS011;3785;52.260;4.728;2024-02-21T06:35:45;11.93;;;4.03;;
7487;SDS011;3785;52.260;4.728;2024-02-21T06:39:07;5.88;;;3.85;;
7487;SDS011;3785;52.260;4.728;2024-02-21T06:42:27;6.30;;;4.00;;
7487;SDS011;3785;52.260;4.728;2024-02-21T06:45:49;8.57;;;5.10;;
7487;SDS011;3785;52.260;4.728;2024-02-21T06:49:13;12.80;;;5.32;;
7487;SDS011;3785;52.260;4.728;2024-02-21T06:52:36;11.00;;;5.88;;
7487;SDS011;3785;52.260;4.728;2024-02-21T06:55:57;7.00;;;5.05;;
7487;SDS011;3785;52.260;4.728;2024-02-21T06:59:18;9.77;;;6.20;;
7487;SDS011;3785;52.260;4.728;2024-02-21T07:02:38;10.15;;;6.28;;
7487;SDS011;3785;52.260;4.728;2024-02-21T07:05:59;10.43;;;6.63;;
7487;SDS011;3785;52.260;4.728;2024-02-21T07:09:20;8.52;;;6.13;;
7487;SDS011;3785;52.260;4.728;2024-02-21T07:12:41;10.60;;;6.38;;
7487;SDS011;3785;52.260;4.728;2024-02-21T07:16:03;9.85;;;6.13;;
7487;SDS011;3785;52.260;4.728;2024-02-21T07:19:24;9.18;;;6.15;;
7487;SDS011;3785;52.260;4.728;2024-02-21T07:22:45;13.00;;;6.07;;
7487;SDS011;3785;52.260;4.728;2024-02-21T07:26:06;11.85;;;6.45;;
7487;SDS011;3785;52.260;4.728;2024-02-21T07:29:26;7.97;;;6.15;;
7487;SDS011;3785;52.260;4.728;2024-02-21T07:32:50;9.20;;;6.70;;
7487;SDS011;3785;52.260;4.728;2024-02-21T07:36:11;12.52;;;6.75;;
7487;SDS011;3785;52.260;4.728;2024-02-21T07:39:35;9.40;;;6.95;;
7487;SDS011;3785;52.260;4.728;2024-02-21T07:42:57;12.80;;;6.78;;
7487;SDS011;3785;52.260;4.728;2024-02-21T07:46:18;10.65;;;6.32;;
7487;SDS011;3785;52.260;4.728;2024-02-21T07:49:45;11.68;;;5.88;;
7487;SDS011;3785;52.260;4.728;2024-02-21T07:53:09;10.63;;;6.35;;
7487;SDS011;3785;52.260;4.728;2024-02-21T07:56:29;9.82;;;6.07;;
7487;SDS011;3785;52.260;4.728;2024-02-21T07:59:50;10.00;;;5.82;;
7487;SDS011;3785;52.260;4.728;2024-02-21T08:03:10;11.52;;;6.18;;
7487;SDS011;3785;52.260;4.728;2024-02-21T08:06:31;12.05;;;6.15;;
7487;SDS011;3785;52.260;4.728;2024-02-21T08:09:52;11.25;;;5.75;;
7487;SDS011;3785;52.260;4.728;2024-02-21T08:13:12;10.18;;;6.10;;
7487;SDS011;3785;52.260;4.728;2024-02-21T08:16:33;9.60;;;5.53;;
7487;SDS011;3785;52.260;4.728;2024-02-21T08:19:53;11.98;;;5.88;;
7487;SDS011;3785;52.260;4.728;2024-02-21T08:23:18;7.65;;;5.53;;
7487;SDS011;3785;52.260;4.728;2024-02-21T08:26:42;10.57;;;5.68;;
7487;SDS011;3785;52.260;4.728;2024-02-21T08:30:06;8.68;;;5.65;;
7487;SDS011;3785;52.260;4.728;2024-02-21T08:33:27;10.93;;;6.38;;
7487;SDS011;3785;52.260;4.728;2024-02-21T08:36:49;13.80;;;6.65;;
7487;SDS011;3785;52.260;4.728;2024-02-21T08:40:10;13.52;;;6.70;;
7487;SDS011;3785;52.260;4.728;2024-02-21T08:43:31;11.48;;;6.70;;
7487;SDS011;3785;52.260;4.728;2024-02-21T08:46:53;9.02;;;5.80;;
7487;SDS011;3785;52.260;4.728;2024-02-21T08:50:14;10.32;;;6.50;;
7487;SDS011;3785;52.260;4.728;2024-02-21T08:53:35;12.88;;;6.88;;
7487;SDS011;3785;52.260;4.728;2024-02-21T08:56:55;8.88;;;5.65;;
7487;SDS011;3785;52.260;4.728;2024-02-21T09:00:16;11.48;;;6.40;;
7487;SDS011;3785;52.260;4.728;2024-02-21T09:03:37;10.02;;;6.30;;
7487;SDS011;3785;52.260;4.728;2024-02-21T09:06:59;8.50;;;5.75;;
7487;SDS011;3785;52.260;4.728;2024-02-21T09:10:20;9.38;;;5.88;;
7487;SDS011;3785;52.260;4.728;2024-02-21T09:13:40;10.30;;;6.63;;
7487;SDS011;3785;52.260;4.728;2024-02-21T09:17:01;11.75;;;6.45;;
7487;SDS011;3785;52.260;4.728;2024-02-21T09:20:22;11.82;;;5.25;;
7487;SDS011;3785;52.260;4.728;2024-02-21T09:23:43;10.35;;;6.18;;
7487;SDS011;3785;52.260;4.728;2024-02-21T09:27:03;11.40;;;6.72;;
7487;SDS011;3785;52.260;4.728;2024-02-21T09:30:26;9.85;;;6.32;;
7487;SDS011;3785;52.260;4.728;2024-02-21T09:33:46;13.45;;;7.07;;
7487;SDS011;3785;52.260;4.728;2024-02-21T09:37:07;11.48;;;6.55;;
7487;SDS011;3785;52.260;4.728;2024-02-21T09:40:28;9.85;;;6.60;;
7487;SDS011;3785;52.260;4.728;2024-02-21T09:43:49;13.60;;;7.15;;
7487;SDS011;3785;52.260;4.728;2024-02-21T09:47:11;11.55;;;7.07;;
7487;SDS011;3785;52.260;4.728;2024-02-21T09:50:36;11.68;;;7.22;;
7487;SDS011;3785;52.260;4.728;2024-02-21T09:54:00;11.88;;;7.82;;
7487;SDS011;3785;52.260;4.728;2024-02-21T09:57:23;11.38;;;7.40;;
7487;SDS011;3785;52.260;4.728;2024-02-21T10:00:44;11.80;;;7.30;;
7487;SDS011;3785;52.260;4.728;2024-02-21T10:04:05;12.40;;;7.32;;
7487;SDS011;3785;52.260;4.728;2024-02-21T10:07:26;13.00;;;7.45;;
7487;SDS011;3785;52.260;4.728;2024-02-21T10:10:46;12.95;;;6.75;;
7487;SDS011;3785;52.260;4.728;2024-02-21T10:14:07;11.13;;;6.47;;
7487;SDS011;3785;52.260;4.728;2024-02-21T10:17:28;9.55;;;6.60;;
7487;SDS011;3785;52.260;4.728;2024-02-21T10:20:49;11.57;;;5.90;;
7487;SDS011;3785;52.260;4.728;2024-02-21T10:24:27;8.23;;;5.35;;
7487;SDS011;3785;52.260;4.728;2024-02-21T10:27:48;10.68;;;5.93;;
7487;SDS011;3785;52.260;4.728;2024-02-21T10:31:11;7.63;;;4.60;;
7487;SDS011;3785;52.260;4.728;2024-02-21T10:34:42;9.25;;;5.53;;
7487;SDS011;3785;52.260;4.728;2024-02-21T10:38:03;8.30;;;4.38;;
7487;SDS011;3785;52.260;4.728;2024-02-21T10:41:24;7.38;;;4.85;;
7487;SDS011;3785;52.260;4.728;2024-02-21T10:44:45;8.07;;;4.82;;
7487;SDS011;3785;52.260;4.728;2024-02-21T10:48:08;6.82;;;4.13;;
7487;SDS011;3785;52.260;4.728;2024-02-21T10:51:33;6.25;;;4.13;;
7487;SDS011;3785;52.260;4.728;2024-02-21T10:54:55;6.55;;;4.40;;
7487;SDS011;3785;52.260;4.728;2024-02-21T10:58:20;5.65;;;4.22;;
7487;SDS011;3785;52.260;4.728;2024-02-21T11:01:41;6.68;;;4.43;;
7487;SDS011;3785;52.260;4.728;2024-02-21T11:05:02;9.27;;;4.65;;
7487;SDS011;3785;52.260;4.728;2024-02-21T11:08:24;6.25;;;4.47;;
7487;SDS011;3785;52.260;4.728;2024-02-21T11:11:48;7.55;;;4.47;;
7487;SDS011;3785;52.260;4.728;2024-02-21T11:15:11;7.30;;;4.70;;
7487;SDS011;3785;52.260;4.728;2024-02-21T11:18:31;6.05;;;4.10;;
7487;SDS011;3785;52.260;4.728;2024-02-21T11:21:53;5.85;;;4.30;;
7487;SDS011;3785;52.260;4.728;2024-02-21T11:25:21;6.15;;;4.03;;
7487;SDS011;3785;52.260;4.728;2024-02-21T11:28:42;6.75;;;4.22;;
7487;SDS011;3785;52.260;4.728;2024-02-21T11:32:04;5.57;;;4.03;;
7487;SDS011;3785;52.260;4.728;2024-02-21T11:35:25;6.13;;;3.42;;
7487;SDS011;3785;52.260;4.728;2024-02-21T11:38:51;7.00;;;4.10;;
7487;SDS011;3785;52.260;4.728;2024-02-21T11:42:15;5.93;;;4.53;;
7487;SDS011;3785;52.260;4.728;2024-02-21T11:45:36;5.93;;;4.15;;
7487;SDS011;3785;52.260;4.728;2024-02-21T11:48:56;6.07;;;4.47;;
7487;SDS011;3785;52.260;4.728;2024-02-21T11:52:23;5.55;;;4.20;;
7487;SDS011;3785;52.260;4.728;2024-02-21T11:55:45;7.13;;;4.55;;
7487;SDS011;3785;52.260;4.728;2024-02-21T11:59:06;7.40;;;4.50;;
7487;SDS011;3785;52.260;4.728;2024-02-21T12:02:26;7.72;;;4.88;;
7487;SDS011;3785;52.260;4.728;2024-02-21T12:05:48;7.30;;;4.63;;
7487;SDS011;3785;52.260;4.728;2024-02-21T12:09:09;7.38;;;4.53;;
7487;SDS011;3785;52.260;4.728;2024-02-21T12:12:29;6.38;;;4.10;;
7487;SDS011;3785;52.260;4.728;2024-02-21T12:15:50;6.43;;;4.20;;
7487;SDS011;3785;52.260;4.728;2024-02-21T12:19:10;7.13;;;3.90;;
7487;SDS011;3785;52.260;4.728;2024-02-21T12:22:32;6.70;;;3.85;;
7487;SDS011;3785;52.260;4.728;2024-02-21T12:25:53;5.80;;;3.28;;
7487;SDS011;3785;52.260;4.728;2024-02-21T12:29:14;5.53;;;3.47;;
7487;SDS011;3785;52.260;4.728;2024-02-21T12:32:35;4.40;;;3.53;;
7487;SDS011;3785;52.260;4.728;2024-02-21T12:35:56;7.05;;;4.00;;
7487;SDS011;3785;52.260;4.728;2024-02-21T12:39:16;5.47;;;3.55;;
7487;SDS011;3785;52.260;4.728;2024-02-21T12:42:37;6.18;;;3.75;;
7487;SDS011;3785;52.260;4.728;2024-02-21T12:45:58;5.13;;;3.70;;
7487;SDS011;3785;52.260;4.728;2024-02-21T12:49:19;5.57;;;3.42;;
7487;SDS011;3785;52.260;4.728;2024-02-21T12:52:40;4.45;;;3.45;;
7487;SDS011;3785;52.260;4.728;2024-02-21T12:56:01;4.97;;;3.65;;
7487;SDS011;3785;52.260;4.728;2024-02-21T12:59:21;5.88;;;3.95;;
7487;SDS011;3785;52.260;4.728;2024-02-21T13:02:42;4.80;;;3.45;;
7487;SDS011;3785;52.260;4.728;2024-02-21T13:06:03;5.70;;;3.80;;
7487;SDS011;3785;52.260;4.728;2024-02-21T13:09:25;6.25;;;3.50;;
7487;SDS011;3785;52.260;4.728;2024-02-21T13:12:45;5.53;;;3.95;;
7487;SDS011;3785;52.260;4.728;2024-02-21T13:16:06;5.45;;;3.85;;
7487;SDS011;3785;52.260;4.728;2024-02-21T13:19:27;7.60;;;4.00;;
7487;SDS011;3785;52.260;4.728;2024-02-21T13:22:47;5.40;;;4.18;;
7487;SDS011;3785;52.260;4.728;2024-02-21T13:26:08;6.70;;;4.97;;
7487;SDS011;3785;52.260;4.728;2024-02-21T13:29:30;6.68;;;4.53;;
7487;SDS011;3785;52.260;4.728;2024-02-21T13:32:50;7.43;;;4.47;;
7487;SDS011;3785;52.260;4.728;2024-02-21T13:36:11;7.03;;;4.75;;
7487;SDS011;3785;52.260;4.728;2024-02-21T13:39:32;6.10;;;3.90;;
7487;SDS011;3785;52.260;4.728;2024-02-21T13:42:54;10.40;;;5.35;;
7487;SDS011;3785;52.260;4.728;2024-02-21T13:46:15;7.65;;;5.53;;
7487;SDS011;3785;52.260;4.728;2024-02-21T13:49:35;7.18;;;4.32;;
7487;SDS011;3785;52.260;4.728;2024-02-21T13:52:56;6.85;;;4.78;;
7487;SDS011;3785;52.260;4.728;2024-02-21T13:56:17;7.60;;;4.90;;
7487;SDS011;3785;52.260;4.728;2024-02-21T13:59:37;8.55;;;5.15;;
7487;SDS011;3785;52.260;4.728;2024-02-21T14:02:59;6.40;;;4.72;;
7487;SDS011;3785;52.260;4.728;2024-02-21T14:06:21;7.00;;;4.57;;
7487;SDS011;3785;52.260;4.728;2024-02-21T14:09:41;6.82;;;4.57;;
7487;SDS011;3785;52.260;4.728;2024-02-21T14:13:02;7.05;;;4.00;;
7487;SDS011;3785;52.260;4.728;2024-02-21T14:16:23;7.30;;;4.35;;
7487;SDS011;3785;52.260;4.728;2024-02-21T14:19:43;5.20;;;3.75;;
7487;SDS011;3785;52.260;4.728;2024-02-21T14:23:04;5.38;;;2.92;;
7487;SDS011;3785;52.260;4.728;2024-02-21T14:26:25;4.75;;;3.00;;
7487;SDS011;3785;52.260;4.728;2024-02-21T14:29:45;5.75;;;3.22;;
7487;SDS011;3785;52.260;4.728;2024-02-21T14:33:06;5.18;;;3.10;;
7487;SDS011;3785;52.260;4.728;2024-02-21T14:36:27;5.25;;;2.40;;
7487;SDS011;3785;52.260;4.728;2024-02-21T14:39:48;4.30;;;2.78;;
7487;SDS011;3785;52.260;4.728;2024-02-21T14:43:09;5.72;;;3.08;;
7487;SDS011;3785;52.260;4.728;2024-02-21T14:46:29;5.85;;;2.80;;
7487;SDS011;3785;52.260;4.728;2024-02-21T14:49:50;4.75;;;2.40;;
7487;SDS011;3785;52.260;4.728;2024-02-21T14:53:11;3.17;;;2.45;;
7487;SDS011;3785;52.260;4.728;2024-02-21T14:56:31;5.70;;;2.90;;
7487;SDS011;3785;52.260;4.728;2024-02-21T14:59:52;5.50;;;2.53;;
7487;SDS011;3785;52.260;4.728;2024-02-21T15:03:16;4.75;;;2.42;;
7487;SDS011;3785;52.260;4.728;2024-02-21T15:06:40;5.80;;;2.65;;
7487;SDS011;3785;52.260;4.728;2024-02-21T15:10:01;3.42;;;2.60;;
7487;SDS011;3785;52.260;4.728;2024-02-21T15:13:22;4.65;;;2.38;;
7487;SDS011;3785;52.260;4.728;2024-02-21T15:16:43;3.55;;;2.65;;
7487;SDS011;3785;52.260;4.728;2024-02-21T15:20:05;6.22;;;3.42;;
7487;SDS011;3785;52.260;4.728;2024-02-21T15:23:29;4.35;;;2.72;;
7487;SDS011;3785;52.260;4.728;2024-02-21T15:26:49;4.15;;;3.08;;
7487;SDS011;3785;52.260;4.728;2024-02-21T15:30:11;6.90;;;3.13;;
7487;SDS011;3785;52.260;4.728;2024-02-21T15:33:32;3.90;;;3.03;;
7487;SDS011;3785;52.260;4.728;2024-02-21T15:36:52;4.97;;;3.28;;
7487;SDS011;3785;52.260;4.728;2024-02-21T15:40:13;5.03;;;3.67;;
7487;SDS011;3785;52.260;4.728;2024-02-21T15:43:34;5.50;;;3.00;;
7487;SDS011;3785;52.260;4.728;2024-02-21T15:46:55;4.25;;;2.85;;
7487;SDS011;3785;52.260;4.728;2024-02-21T15:50:16;3.55;;;2.47;;
7487;SDS011;3785;52.260;4.728;2024-02-21T15:53:36;5.03;;;2.90;;
7487;SDS011;3785;52.260;4.728;2024-02-21T15:56:58;4.45;;;3.08;;
7487;SDS011;3785;52.260;4.728;2024-02-21T16:00:19;4.70;;;2.55;;
7487;SDS011;3785;52.260;4.728;2024-02-21T16:03:41;4.57;;;2.85;;
7487;SDS011;3785;52.260;4.728;2024-02-21T16:07:02;5.30;;;2.55;;
7487;SDS011;3785;52.260;4.728;2024-02-21T16:10:22;4.40;;;3.08;;
7487;SDS011;3785;52.260;4.728;2024-02-21T16:13:43;4.85;;;2.70;;
7487;SDS011;3785;52.260;4.728;2024-02-21T16:17:05;5.70;;;2.95;;
7487;SDS011;3785;52.260;4.728;2024-02-21T16:20:27;5.38;;;2.67;;
7487;SDS011;3785;52.260;4.728;2024-02-21T16:23:47;3.97;;;2.47;;
7487;SDS011;3785;52.260;4.728;2024-02-21T16:27:08;5.05;;;2.40;;
7487;SDS011;3785;52.260;4.728;2024-02-21T16:30:29;6.00;;;3.00;;
7487;SDS011;3785;52.260;4.728;2024-02-21T16:33:49;3.72;;;2.70;;
7487;SDS011;3785;52.260;4.728;2024-02-21T16:37:11;4.90;;;3.10;;
7487;SDS011;3785;52.260;4.728;2024-02-21T16:40:33;5.80;;;3.17;;
7487;SDS011;3785;52.260;4.728;2024-02-21T16:43:54;4.50;;;3.03;;
7487;SDS011;3785;52.260;4.728;2024-02-21T16:47:14;4.45;;;2.92;;
7487;SDS011;3785;52.260;4.728;2024-02-21T16:50:36;11.43;;;3.25;;
7487;SDS011;3785;52.260;4.728;2024-02-21T16:53:58;6.03;;;3.30;;
7487;SDS011;3785;52.260;4.728;2024-02-21T16:57:20;4.30;;;3.15;;
7487;SDS011;3785;52.260;4.728;2024-02-21T17:00:41;4.47;;;3.50;;
7487;SDS011;3785;52.260;4.728;2024-02-21T17:04:02;4.70;;;3.22;;
7487;SDS011;3785;52.260;4.728;2024-02-21T17:07:22;3.85;;;2.95;;
7487;SDS011;3785;52.260;4.728;2024-02-21T17:10:43;4.65;;;3.08;;
7487;SDS011;3785;52.260;4.728;2024-02-21T17:14:04;5.55;;;3.60;;
7487;SDS011;3785;52.260;4.728;2024-02-21T17:17:24;5.47;;;3.45;;
7487;SDS011;3785;52.260;4.728;2024-02-21T17:20:45;5.22;;;3.47;;
7487;SDS011;3785;52.260;4.728;2024-02-21T17:24:08;5.05;;;3.65;;
7487;SDS011;3785;52.260;4.728;2024-02-21T17:27:28;4.40;;;3.42;;
7487;SDS011;3785;52.260;4.728;2024-02-21T17:30:49;3.90;;;3.05;;
7487;SDS011;3785;52.260;4.728;2024-02-21T17:34:10;6.03;;;3.38;;
7487;SDS011;3785;52.260;4.728;2024-02-21T17:37:31;6.97;;;3.40;;
7487;SDS011;3785;52.260;4.728;2024-02-21T17:40:55;3.92;;;3.13;;
7487;SDS011;3785;52.260;4.728;2024-02-21T17:44:16;3.97;;;2.97;;
7487;SDS011;3785;52.260;4.728;2024-02-21T17:47:37;7.03;;;3.30;;
7487;SDS011;3785;52.260;4.728;2024-02-21T17:50:58;3.67;;;2.65;;
7487;SDS011;3785;52.260;4.728;2024-02-21T17:54:19;4.97;;;3.13;;
7487;SDS011;3785;52.260;4.728;2024-02-21T17:57:39;4.20;;;3.28;;
7487;SDS011;3785;52.260;4.728;2024-02-21T18:01:00;4.53;;;2.90;;
7487;SDS011;3785;52.260;4.728;2024-02-21T18:04:21;5.38;;;3.03;;
7487;SDS011;3785;52.260;4.728;2024-02-21T18:07:43;3.63;;;2.85;;
7487;SDS011;3785;52.260;4.728;2024-02-21T18:11:04;4.68;;;2.97;;
7487;SDS011;3785;52.260;4.728;2024-02-21T18:14:25;3.60;;;2.40;;
7487;SDS011;3785;52.260;4.728;2024-02-21T18:17:46;5.63;;;3.00;;
7487;SDS011;3785;52.260;4.728;2024-02-21T18:21:08;4.85;;;2.83;;
7487;SDS011;3785;52.260;4.728;2024-02-21T18:24:28;4.20;;;3.40;;
7487;SDS011;3785;52.260;4.728;2024-02-21T18:27:50;3.90;;;2.92;;
7487;SDS011;3785;52.260;4.728;2024-02-21T18:31:12;2.80;;;2.15;;
7487;SDS011;3785;52.260;4.728;2024-02-21T18:34:32;4.15;;;2.90;;
7487;SDS011;3785;52.260;4.728;2024-02-21T18:37:54;4.35;;;2.78;;
7487;SDS011;3785;52.260;4.728;2024-02-21T18:41:15;3.92;;;2.70;;
7487;SDS011;3785;52.260;4.728;2024-02-21T18:44:36;3.97;;;2.67;;
7487;SDS011;3785;52.260;4.728;2024-02-21T18:47:57;3.63;;;2.47;;
7487;SDS011;3785;52.260;4.728;2024-02-21T18:51:17;3.55;;;2.40;;
7487;SDS011;3785;52.260;4.728;2024-02-21T18:54:39;4.03;;;2.63;;
7487;SDS011;3785;52.260;4.728;2024-02-21T18:58:01;4.05;;;2.65;;
7487;SDS011;3785;52.260;4.728;2024-02-21T19:01:22;3.75;;;2.83;;
7487;SDS011;3785;52.260;4.728;2024-02-21T19:04:43;5.07;;;3.08;;
7487;SDS011;3785;52.260;4.728;2024-02-21T19:08:04;3.85;;;2.63;;
7487;SDS011;3785;52.260;4.728;2024-02-21T19:11:24;3.53;;;2.58;;
7487;SDS011;3785;52.260;4.728;2024-02-21T19:14:45;4.88;;;2.80;;
7487;SDS011;3785;52.260;4.728;2024-02-21T19:18:06;3.88;;;2.75;;
7487;SDS011;3785;52.260;4.728;2024-02-21T19:21:27;4.80;;;2.83;;
7487;SDS011;3785;52.260;4.728;2024-02-21T19:24:48;3.85;;;2.70;;
7487;SDS011;3785;52.260;4.728;2024-02-21T19:28:09;3.92;;;2.85;;
7487;SDS011;3785;52.260;4.728;2024-02-21T19:31:33;3.67;;;2.90;;
7487;SDS011;3785;52.260;4.728;2024-02-21T19:34:53;4.30;;;2.45;;
7487;SDS011;3785;52.260;4.728;2024-02-21T19:38:14;4.72;;;3.22;;
7487;SDS011;3785;52.260;4.728;2024-02-21T19:41:34;3.53;;;2.75;;
7487;SDS011;3785;52.260;4.728;2024-02-21T19:44:55;3.45;;;2.67;;
7487;SDS011;3785;52.260;4.728;2024-02-21T19:48:16;4.13;;;2.40;;
7487;SDS011;3785;52.260;4.728;2024-02-21T19:51:38;4.43;;;3.05;;
7487;SDS011;3785;52.260;4.728;2024-02-21T19:54:58;4.35;;;2.83;;
7487;SDS011;3785;52.260;4.728;2024-02-21T19:58:19;3.22;;;2.65;;
7487;SDS011;3785;52.260;4.728;2024-02-21T20:01:40;3.60;;;2.75;;
7487;SDS011;3785;52.260;4.728;2024-02-21T20:05:01;5.35;;;2.70;;
7487;SDS011;3785;52.260;4.728;2024-02-21T20:08:22;3.60;;;3.08;;
7487;SDS011;3785;52.260;4.728;2024-02-21T20:11:43;3.08;;;2.47;;
7487;SDS011;3785;52.260;4.728;2024-02-21T20:15:04;3.80;;;3.03;;
7487;SDS011;3785;52.260;4.728;2024-02-21T20:18:25;3.70;;;2.78;;
7487;SDS011;3785;52.260;4.728;2024-02-21T20:21:46;3.85;;;3.03;;
7487;SDS011;3785;52.260;4.728;2024-02-21T20:25:09;4.82;;;3.08;;
7487;SDS011;3785;52.260;4.728;2024-02-21T20:28:30;4.38;;;3.28;;
7487;SDS011;3785;52.260;4.728;2024-02-21T20:31:51;4.90;;;3.38;;
7487;SDS011;3785;52.260;4.728;2024-02-21T20:35:12;4.60;;;3.42;;
7487;SDS011;3785;52.260;4.728;2024-02-21T20:38:32;3.78;;;3.05;;
7487;SDS011;3785;52.260;4.728;2024-02-21T20:41:53;3.35;;;2.88;;
7487;SDS011;3785;52.260;4.728;2024-02-21T20:45:13;4.05;;;2.97;;